sensor_id;sensor_type;location;lat;lon;timestamp;pressure;altitude;pressure_sealevel;temperature;humidity
36692;BME280;22678;52.052;4.242;2023-07-29T00:00:30;100733.34;;;19.80;73.14
36692;BME280;22678;52.052;4.242;2023-07-29T00:02:55;100733.56;;;19.75;73.05
36692;BME280;22678;52.052;4.242;2023-07-29T00:05:21;100735.22;;;19.77;73.08
36692;BME280;22678;52.052;4.242;2023-07-29T00:07:46;100721.38;;;19.69;73.02
36692;BME280;22678;52.052;4.242;2023-07-29T00:10:11;100716.97;;;19.68;73.10
36692;BME280;22678;52.052;4.242;2023-07-29T00:12:37;100723.09;;;19.70;73.03
36692;BME280;22678;52.052;4.242;2023-07-29T00:15:02;100726.69;;;19.69;73.19
36692;BME280;22678;52.052;4.242;2023-07-29T00:17:28;100728.75;;;19.64;73.32
36692;BME280;22678;52.052;4.242;2023-07-29T00:19:53;100715.66;;;19.58;73.43
36692;BME280;22678;52.052;4.242;2023-07-29T00:22:19;100726.22;;;19.61;73.19
36692;BME280;22678;52.052;4.242;2023-07-29T00:24:44;100723.97;;;19.52;73.04
36692;BME280;22678;52.052;4.242;2023-07-29T00:27:09;100716.84;;;19.52;73.16
36692;BME280;22678;52.052;4.242;2023-07-29T00:29:35;100727.53;;;19.52;73.28
36692;BME280;22678;52.052;4.242;2023-07-29T00:32:00;100723.97;;;19.52;73.05
36692;BME280;22678;52.052;4.242;2023-07-29T00:34:25;100726.16;;;19.43;73.01
36692;BME280;22678;52.052;4.242;2023-07-29T00:36:51;100723.41;;;19.45;73.08
36692;BME280;22678;52.052;4.242;2023-07-29T00:39:16;100721.75;;;19.42;73.13
36692;BME280;22678;52.052;4.242;2023-07-29T00:41:41;100723.69;;;19.39;73.08
36692;BME280;22678;52.052;4.242;2023-07-29T00:44:07;100719.38;;;19.36;73.03
36692;BME280;22678;52.052;4.242;2023-07-29T00:46:34;100721.22;;;19.34;73.36
36692;BME280;22678;52.052;4.242;2023-07-29T00:49:01;100712.44;;;19.32;73.34
36692;BME280;22678;52.052;4.242;2023-07-29T00:51:26;100705.38;;;19.31;73.76
36692;BME280;22678;52.052;4.242;2023-07-29T00:53:52;100716.72;;;19.36;73.86
36692;BME280;22678;52.052;4.242;2023-07-29T00:56:18;100711.44;;;19.35;73.72
36692;BME280;22678;52.052;4.242;2023-07-29T00:58:43;100695.00;;;19.25;74.08
36692;BME280;22678;52.052;4.242;2023-07-29T01:01:09;100693.28;;;19.24;74.25
36692;BME280;22678;52.052;4.242;2023-07-29T01:03:35;100710.84;;;19.28;74.69
36692;BME280;22678;52.052;4.242;2023-07-29T01:06:41;100717.94;;;19.29;74.85
36692;BME280;22678;52.052;4.242;2023-07-29T01:09:03;100699.41;;;19.26;74.84
36692;BME280;22678;52.052;4.242;2023-07-29T01:11:43;100700.41;;;19.23;75.04
36692;BME280;22678;52.052;4.242;2023-07-29T01:14:28;100696.97;;;19.21;75.25
36692;BME280;22678;52.052;4.242;2023-07-29T01:17:00;100684.94;;;19.13;75.53
36692;BME280;22678;52.052;4.242;2023-07-29T01:19:45;100691.75;;;19.18;75.55
36692;BME280;22678;52.052;4.242;2023-07-29T01:22:13;100684.88;;;19.14;75.66
36692;BME280;22678;52.052;4.242;2023-07-29T01:24:39;100698.19;;;19.14;75.90
36692;BME280;22678;52.052;4.242;2023-07-29T01:27:05;100702.63;;;19.14;75.99
36692;BME280;22678;52.052;4.242;2023-07-29T01:29:31;100686.00;;;19.08;76.17
36692;BME280;22678;52.052;4.242;2023-07-29T01:32:02;100683.50;;;19.05;76.35
36692;BME280;22678;52.052;4.242;2023-07-29T01:34:35;100693.19;;;19.06;76.38
36692;BME280;22678;52.052;4.242;2023-07-29T01:37:05;100697.53;;;19.09;76.60
36692;BME280;22678;52.052;4.242;2023-07-29T01:39:34;100680.09;;;19.02;76.75
36692;BME280;22678;52.052;4.242;2023-07-29T01:42:02;100684.34;;;19.06;76.78
36692;BME280;22678;52.052;4.242;2023-07-29T01:44:28;100677.34;;;19.03;76.89
36692;BME280;22678;52.052;4.242;2023-07-29T01:46:57;100672.09;;;19.02;77.04
36692;BME280;22678;52.052;4.242;2023-07-29T01:49:23;100675.63;;;19.02;76.98
36692;BME280;22678;52.052;4.242;2023-07-29T01:51:48;100667.63;;;19.02;77.15
36692;BME280;22678;52.052;4.242;2023-07-29T01:54:13;100672.16;;;19.00;77.44
36692;BME280;22678;52.052;4.242;2023-07-29T01:56:39;100680.16;;;19.00;77.37
36692;BME280;22678;52.052;4.242;2023-07-29T01:59:04;100674.97;;;18.97;77.42
36692;BME280;22678;52.052;4.242;2023-07-29T02:01:29;100657.53;;;18.90;77.76
36692;BME280;22678;52.052;4.242;2023-07-29T02:03:56;100660.94;;;18.94;77.82
36692;BME280;22678;52.052;4.242;2023-07-29T02:06:21;100667.91;;;18.96;78.15
36692;BME280;22678;52.052;4.242;2023-07-29T02:08:47;100650.50;;;18.89;78.39
36692;BME280;22678;52.052;4.242;2023-07-29T02:11:12;100654.09;;;18.88;78.68
36692;BME280;22678;52.052;4.242;2023-07-29T02:13:38;100654.16;;;18.86;78.91
36692;BME280;22678;52.052;4.242;2023-07-29T02:16:03;100667.25;;;18.91;79.13
36692;BME280;22678;52.052;4.242;2023-07-29T02:18:28;100655.81;;;18.89;79.45
36692;BME280;22678;52.052;4.242;2023-07-29T02:20:54;100661.16;;;18.89;79.61
36692;BME280;22678;52.052;4.242;2023-07-29T02:23:19;100609.09;;;18.61;79.68
36692;BME280;22678;52.052;4.242;2023-07-29T02:25:44;100648.88;;;18.85;79.84
36692;BME280;22678;52.052;4.242;2023-07-29T02:28:10;100641.78;;;18.84;80.18
36692;BME280;22678;52.052;4.242;2023-07-29T02:30:36;100644.34;;;18.87;80.37
36692;BME280;22678;52.052;4.242;2023-07-29T02:33:01;100646.16;;;18.86;80.49
36692;BME280;22678;52.052;4.242;2023-07-29T02:35:27;100641.78;;;18.84;80.59
36692;BME280;22678;52.052;4.242;2023-07-29T02:37:53;100636.47;;;18.84;80.68
36692;BME280;22678;52.052;4.242;2023-07-29T02:40:18;100625.97;;;18.81;80.95
36692;BME280;22678;52.052;4.242;2023-07-29T02:42:46;100613.84;;;18.73;81.10
36692;BME280;22678;52.052;4.242;2023-07-29T02:45:11;100641.09;;;18.80;81.12
36692;BME280;22678;52.052;4.242;2023-07-29T02:47:37;100632.28;;;18.78;81.46
36692;BME280;22678;52.052;4.242;2023-07-29T02:50:03;100639.28;;;18.81;81.56
36692;BME280;22678;52.052;4.242;2023-07-29T02:52:29;100636.63;;;18.81;81.72
36692;BME280;22678;52.052;4.242;2023-07-29T02:54:55;100624.50;;;18.73;81.91
36692;BME280;22678;52.052;4.242;2023-07-29T02:57:20;100628.75;;;18.78;82.12
36692;BME280;22678;52.052;4.242;2023-07-29T02:59:45;100617.44;;;18.72;82.23
36692;BME280;22678;52.052;4.242;2023-07-29T03:02:11;100630.69;;;18.74;82.25
36692;BME280;22678;52.052;4.242;2023-07-29T03:04:36;100632.56;;;18.72;82.43
36692;BME280;22678;52.052;4.242;2023-07-29T03:07:02;100631.72;;;18.71;82.38
36692;BME280;22678;52.052;4.242;2023-07-29T03:09:28;100639.56;;;18.74;82.87
36692;BME280;22678;52.052;4.242;2023-07-29T03:11:53;100635.94;;;18.76;82.42
36692;BME280;22678;52.052;4.242;2023-07-29T03:14:20;100638.75;;;18.72;83.00
36692;BME280;22678;52.052;4.242;2023-07-29T03:16:46;100625.78;;;18.65;83.21
36692;BME280;22678;52.052;4.242;2023-07-29T03:19:12;100634.44;;;18.70;83.21
36692;BME280;22678;52.052;4.242;2023-07-29T03:21:37;100637.81;;;18.73;83.53
36692;BME280;22678;52.052;4.242;2023-07-29T03:24:03;100632.50;;;18.73;83.56
36692;BME280;22678;52.052;4.242;2023-07-29T03:26:28;100634.25;;;18.74;83.78
36692;BME280;22678;52.052;4.242;2023-07-29T03:28:53;100634.31;;;18.73;83.75
36692;BME280;22678;52.052;4.242;2023-07-29T03:31:19;100646.59;;;18.76;84.17
36692;BME280;22678;52.052;4.242;2023-07-29T03:33:44;100657.22;;;18.77;84.02
36692;BME280;22678;52.052;4.242;2023-07-29T03:36:09;100659.91;;;18.76;83.89
36692;BME280;22678;52.052;4.242;2023-07-29T03:38:35;100661.72;;;18.75;84.19
36692;BME280;22678;52.052;4.242;2023-07-29T03:41:04;100649.63;;;18.68;84.26
36692;BME280;22678;52.052;4.242;2023-07-29T03:43:30;100644.97;;;18.73;84.40
36692;BME280;22678;52.052;4.242;2023-07-29T03:45:55;100625.66;;;18.68;84.54
36692;BME280;22678;52.052;4.242;2023-07-29T03:48:21;100642.38;;;18.71;84.59
36692;BME280;22678;52.052;4.242;2023-07-29T03:50:46;100646.81;;;18.71;84.71
36692;BME280;22678;52.052;4.242;2023-07-29T03:53:11;100650.28;;;18.73;84.88
36692;BME280;22678;52.052;4.242;2023-07-29T03:55:37;100645.09;;;18.70;84.73
36692;BME280;22678;52.052;4.242;2023-07-29T03:58:02;100650.22;;;18.74;85.13
36692;BME280;22678;52.052;4.242;2023-07-29T04:00:27;100651.00;;;18.77;85.31
36692;BME280;22678;52.052;4.242;2023-07-29T04:02:53;100646.56;;;18.77;85.60
36692;BME280;22678;52.052;4.242;2023-07-29T04:05:19;100631.84;;;18.68;85.60
36692;BME280;22678;52.052;4.242;2023-07-29T04:07:44;100641.50;;;18.71;85.77
36692;BME280;22678;52.052;4.242;2023-07-29T04:10:10;100626.53;;;18.68;85.93
36692;BME280;22678;52.052;4.242;2023-07-29T04:12:36;100638.75;;;18.72;86.06
36692;BME280;22678;52.052;4.242;2023-07-29T04:15:02;100646.75;;;18.72;86.25
36692;BME280;22678;52.052;4.242;2023-07-29T04:17:27;100644.22;;;18.69;85.85
36692;BME280;22678;52.052;4.242;2023-07-29T04:19:52;100651.22;;;18.72;86.15
36692;BME280;22678;52.052;4.242;2023-07-29T04:22:18;100640.63;;;18.70;86.24
36692;BME280;22678;52.052;4.242;2023-07-29T04:24:43;100648.56;;;18.72;86.27
36692;BME280;22678;52.052;4.242;2023-07-29T04:27:09;100657.25;;;18.76;86.53
36692;BME280;22678;52.052;4.242;2023-07-29T04:29:35;100654.59;;;18.76;86.60
36692;BME280;22678;52.052;4.242;2023-07-29T04:32:03;100644.22;;;18.69;86.75
36692;BME280;22678;52.052;4.242;2023-07-29T04:34:29;100643.50;;;18.66;86.80
36692;BME280;22678;52.052;4.242;2023-07-29T04:36:54;100652.88;;;18.74;86.91
36692;BME280;22678;52.052;4.242;2023-07-29T04:39:19;100652.00;;;18.74;87.13
36692;BME280;22678;52.052;4.242;2023-07-29T04:41:45;100653.66;;;18.77;87.41
36692;BME280;22678;52.052;4.242;2023-07-29T04:44:10;100659.00;;;18.77;87.44
36692;BME280;22678;52.052;4.242;2023-07-29T04:46:36;100650.16;;;18.76;87.71
36692;BME280;22678;52.052;4.242;2023-07-29T04:49:01;100652.75;;;18.78;87.39
36692;BME280;22678;52.052;4.242;2023-07-29T04:51:27;100658.00;;;18.79;87.27
36692;BME280;22678;52.052;4.242;2023-07-29T04:53:53;100648.41;;;18.75;87.21
36692;BME280;22678;52.052;4.242;2023-07-29T04:56:19;100644.06;;;18.72;87.23
36692;BME280;22678;52.052;4.242;2023-07-29T04:58:44;100658.06;;;18.78;87.04
36692;BME280;22678;52.052;4.242;2023-07-29T05:01:10;100656.19;;;18.80;86.78
36692;BME280;22678;52.052;4.242;2023-07-29T05:03:35;100657.94;;;18.81;87.00
36692;BME280;22678;52.052;4.242;2023-07-29T05:06:02;100658.00;;;18.79;86.95
36692;BME280;22678;52.052;4.242;2023-07-29T05:08:27;100657.06;;;18.80;86.80
36692;BME280;22678;52.052;4.242;2023-07-29T05:10:53;100648.06;;;18.83;86.80
36692;BME280;22678;52.052;4.242;2023-07-29T05:13:20;100640.06;;;18.83;86.75
36692;BME280;22678;52.052;4.242;2023-07-29T05:15:47;100642.66;;;18.84;86.49
36692;BME280;22678;52.052;4.242;2023-07-29T05:18:12;100640.06;;;18.83;86.64
36692;BME280;22678;52.052;4.242;2023-07-29T05:20:37;100640.06;;;18.83;86.47
36692;BME280;22678;52.052;4.242;2023-07-29T05:23:03;100627.69;;;18.82;86.43
36692;BME280;22678;52.052;4.242;2023-07-29T05:25:29;100656.53;;;18.93;86.35
36692;BME280;22678;52.052;4.242;2023-07-29T05:27:54;100642.50;;;18.89;86.51
36692;BME280;22678;52.052;4.242;2023-07-29T05:30:19;100636.06;;;18.93;86.38
36692;BME280;22678;52.052;4.242;2023-07-29T05:32:46;100642.91;;;18.99;86.21
36692;BME280;22678;52.052;4.242;2023-07-29T05:35:11;100649.06;;;19.01;86.39
36692;BME280;22678;52.052;4.242;2023-07-29T05:37:38;100644.50;;;19.03;86.21
36692;BME280;22678;52.052;4.242;2023-07-29T05:40:05;100642.22;;;18.95;85.75
36692;BME280;22678;52.052;4.242;2023-07-29T05:42:32;100648.31;;;18.97;85.97
36692;BME280;22678;52.052;4.242;2023-07-29T05:44:57;100643.13;;;18.94;85.87
36692;BME280;22678;52.052;4.242;2023-07-29T05:47:22;100644.06;;;18.93;85.98
36692;BME280;22678;52.052;4.242;2023-07-29T05:49:48;100651.88;;;18.98;85.99
36692;BME280;22678;52.052;4.242;2023-07-29T05:52:13;100656.31;;;18.97;86.06
36692;BME280;22678;52.052;4.242;2023-07-29T05:54:38;100662.53;;;18.98;86.19
36692;BME280;22678;52.052;4.242;2023-07-29T05:57:04;100653.78;;;18.94;86.22
36692;BME280;22678;52.052;4.242;2023-07-29T05:59:29;100657.38;;;18.93;86.35
36692;BME280;22678;52.052;4.242;2023-07-29T06:01:56;100659.13;;;18.94;86.45
36692;BME280;22678;52.052;4.242;2023-07-29T06:04:21;100666.03;;;18.98;86.39
36692;BME280;22678;52.052;4.242;2023-07-29T06:06:47;100646.72;;;18.93;86.45
36692;BME280;22678;52.052;4.242;2023-07-29T06:09:12;100661.44;;;19.02;86.46
36692;BME280;22678;52.052;4.242;2023-07-29T06:11:37;100650.19;;;18.95;86.47
36692;BME280;22678;52.052;4.242;2023-07-29T06:14:03;100668.34;;;19.06;86.60
36692;BME280;22678;52.052;4.242;2023-07-29T06:16:28;100652.72;;;18.98;86.73
36692;BME280;22678;52.052;4.242;2023-07-29T06:18:53;100668.28;;;19.07;86.81
36692;BME280;22678;52.052;4.242;2023-07-29T06:21:19;100669.16;;;19.08;86.74
36692;BME280;22678;52.052;4.242;2023-07-29T06:23:45;100655.88;;;19.06;86.64
36692;BME280;22678;52.052;4.242;2023-07-29T06:26:11;100661.16;;;19.08;86.83
36692;BME280;22678;52.052;4.242;2023-07-29T06:28:36;100663.84;;;19.08;87.08
36692;BME280;22678;52.052;4.242;2023-07-29T06:31:01;100663.94;;;19.05;87.13
36692;BME280;22678;52.052;4.242;2023-07-29T06:33:27;100676.28;;;19.07;87.66
36692;BME280;22678;52.052;4.242;2023-07-29T06:35:52;100658.97;;;18.97;87.83
36692;BME280;22678;52.052;4.242;2023-07-29T06:38:17;100669.34;;;19.03;88.14
36692;BME280;22678;52.052;4.242;2023-07-29T06:40:49;100672.25;;;19.18;88.33
36692;BME280;22678;52.052;4.242;2023-07-29T06:43:14;100666.34;;;19.30;88.23
36692;BME280;22678;52.052;4.242;2023-07-29T06:45:40;100663.47;;;19.35;87.73
36692;BME280;22678;52.052;4.242;2023-07-29T06:48:05;100663.72;;;19.29;87.25
36692;BME280;22678;52.052;4.242;2023-07-29T06:50:30;100663.03;;;19.25;87.47
36692;BME280;22678;52.052;4.242;2023-07-29T06:52:56;100674.63;;;19.24;86.92
36692;BME280;22678;52.052;4.242;2023-07-29T06:55:21;100679.94;;;19.24;86.48
36692;BME280;22678;52.052;4.242;2023-07-29T06:57:46;100672.25;;;19.18;86.54
36692;BME280;22678;52.052;4.242;2023-07-29T07:00:12;100676.88;;;19.14;86.50
36692;BME280;22678;52.052;4.242;2023-07-29T07:02:37;100676.88;;;19.33;86.60
36692;BME280;22678;52.052;4.242;2023-07-29T07:05:03;100671.91;;;19.62;86.27
36692;BME280;22678;52.052;4.242;2023-07-29T07:07:28;100672.16;;;19.94;84.82
36692;BME280;22678;52.052;4.242;2023-07-29T07:09:53;100663.38;;;20.27;83.28
36692;BME280;22678;52.052;4.242;2023-07-29T07:12:19;100641.06;;;20.45;80.58
36692;BME280;22678;52.052;4.242;2023-07-29T07:14:44;100674.28;;;20.75;77.27
36692;BME280;22678;52.052;4.242;2023-07-29T07:17:10;100676.41;;;21.02;74.95
36692;BME280;22678;52.052;4.242;2023-07-29T07:19:35;100680.56;;;21.07;73.74
36692;BME280;22678;52.052;4.242;2023-07-29T07:22:00;100672.75;;;20.87;73.04
36692;BME280;22678;52.052;4.242;2023-07-29T07:24:25;100695.66;;;20.75;73.18
36692;BME280;22678;52.052;4.242;2023-07-29T07:26:51;100691.72;;;20.64;73.23
36692;BME280;22678;52.052;4.242;2023-07-29T07:29:16;100690.78;;;20.48;73.88
36692;BME280;22678;52.052;4.242;2023-07-29T07:31:50;100682.72;;;20.32;74.39
36692;BME280;22678;52.052;4.242;2023-07-29T07:34:17;100691.66;;;20.31;75.02
36692;BME280;22678;52.052;4.242;2023-07-29T07:36:43;100683.72;;;20.29;75.35
36692;BME280;22678;52.052;4.242;2023-07-29T07:39:08;100698.31;;;20.40;75.58
36692;BME280;22678;52.052;4.242;2023-07-29T07:41:34;100690.47;;;20.37;75.47
36692;BME280;22678;52.052;4.242;2023-07-29T07:43:59;100700.59;;;20.47;74.66
36692;BME280;22678;52.052;4.242;2023-07-29T07:46:25;100697.47;;;20.57;74.79
36692;BME280;22678;52.052;4.242;2023-07-29T07:48:51;100706.75;;;20.67;73.91
36692;BME280;22678;52.052;4.242;2023-07-29T07:51:16;100690.66;;;20.69;74.40
36692;BME280;22678;52.052;4.242;2023-07-29T07:53:41;100701.53;;;20.81;74.13
36692;BME280;22678;52.052;4.242;2023-07-29T07:56:07;100702.91;;;20.89;74.20
36692;BME280;22678;52.052;4.242;2023-07-29T07:58:32;100712.03;;;20.85;73.88
36692;BME280;22678;52.052;4.242;2023-07-29T08:01:08;100706.88;;;20.81;73.94
36692;BME280;22678;52.052;4.242;2023-07-29T08:03:35;100713.94;;;20.82;74.29
36692;BME280;22678;52.052;4.242;2023-07-29T08:06:01;100717.47;;;20.83;74.36
36692;BME280;22678;52.052;4.242;2023-07-29T08:08:26;100711.56;;;20.94;74.26
36692;BME280;22678;52.052;4.242;2023-07-29T08:10:56;100722.81;;;21.16;73.48
36692;BME280;22678;52.052;4.242;2023-07-29T08:13:23;100726.28;;;21.34;72.22
36692;BME280;22678;52.052;4.242;2023-07-29T08:15:49;100716.63;;;21.48;71.38
36692;BME280;22678;52.052;4.242;2023-07-29T08:18:15;100709.00;;;21.74;70.53
36692;BME280;22678;52.052;4.242;2023-07-29T08:20:41;100717.94;;;21.88;69.45
36692;BME280;22678;52.052;4.242;2023-07-29T08:23:06;100738.06;;;21.96;68.91
36692;BME280;22678;52.052;4.242;2023-07-29T08:25:32;100729.59;;;21.87;68.67
36692;BME280;22678;52.052;4.242;2023-07-29T08:27:57;100730.13;;;21.78;68.50
36692;BME280;22678;52.052;4.242;2023-07-29T08:30:22;100713.72;;;21.68;69.11
36692;BME280;22678;52.052;4.242;2023-07-29T08:32:47;100724.78;;;21.78;69.70
36692;BME280;22678;52.052;4.242;2023-07-29T08:35:13;100709.06;;;21.88;69.88
36692;BME280;22678;52.052;4.242;2023-07-29T08:37:38;100721.63;;;22.02;69.72
36692;BME280;22678;52.052;4.242;2023-07-29T08:40:04;100731.22;;;22.06;68.59
36692;BME280;22678;52.052;4.242;2023-07-29T08:42:31;100733.06;;;22.05;68.67
36692;BME280;22678;52.052;4.242;2023-07-29T08:45:01;100739.53;;;22.01;68.98
36692;BME280;22678;52.052;4.242;2023-07-29T08:47:31;100724.06;;;21.91;69.18
36692;BME280;22678;52.052;4.242;2023-07-29T08:49:57;100731.50;;;21.85;68.65
36692;BME280;22678;52.052;4.242;2023-07-29T08:52:24;100716.56;;;21.81;68.76
36692;BME280;22678;52.052;4.242;2023-07-29T08:54:51;100724.25;;;21.87;69.11
36692;BME280;22678;52.052;4.242;2023-07-29T08:57:18;100727.91;;;21.86;69.12
36692;BME280;22678;52.052;4.242;2023-07-29T08:59:45;100733.16;;;21.88;69.34
36692;BME280;22678;52.052;4.242;2023-07-29T09:02:11;100739.09;;;21.77;68.75
36692;BME280;22678;52.052;4.242;2023-07-29T09:04:36;100704.41;;;21.60;68.79
36692;BME280;22678;52.052;4.242;2023-07-29T09:07:02;100712.59;;;21.57;69.03
36692;BME280;22678;52.052;4.242;2023-07-29T09:09:27;100725.31;;;21.53;69.09
36692;BME280;22678;52.052;4.242;2023-07-29T09:11:53;100728.38;;;21.45;69.76
36692;BME280;22678;52.052;4.242;2023-07-29T09:14:19;100728.66;;;21.41;70.37
36692;BME280;22678;52.052;4.242;2023-07-29T09:16:45;100722.00;;;21.32;71.54
36692;BME280;22678;52.052;4.242;2023-07-29T09:19:11;100738.34;;;21.26;72.22
36692;BME280;22678;52.052;4.242;2023-07-29T09:21:39;100738.53;;;21.23;73.32
36692;BME280;22678;52.052;4.242;2023-07-29T09:24:05;100722.31;;;21.10;73.88
36692;BME280;22678;52.052;4.242;2023-07-29T09:26:32;100729.28;;;21.12;74.57
36692;BME280;22678;52.052;4.242;2023-07-29T09:28:59;100723.50;;;21.04;75.31
36692;BME280;22678;52.052;4.242;2023-07-29T09:31:26;100721.94;;;21.00;75.76
36692;BME280;22678;52.052;4.242;2023-07-29T09:34:03;100720.75;;;21.06;76.35
36692;BME280;22678;52.052;4.242;2023-07-29T09:36:32;100714.78;;;21.16;76.47
36692;BME280;22678;52.052;4.242;2023-07-29T09:38:58;100726.19;;;21.36;77.21
36692;BME280;22678;52.052;4.242;2023-07-29T09:41:27;100719.31;;;21.48;76.83
36692;BME280;22678;52.052;4.242;2023-07-29T09:44:04;100715.38;;;21.55;76.59
36692;BME280;22678;52.052;4.242;2023-07-29T09:46:34;100710.81;;;21.57;76.04
36692;BME280;22678;52.052;4.242;2023-07-29T09:49:02;100719.22;;;21.49;75.71
36692;BME280;22678;52.052;4.242;2023-07-29T09:51:27;100717.50;;;21.48;75.59
36692;BME280;22678;52.052;4.242;2023-07-29T09:53:53;100723.88;;;21.46;75.35
36692;BME280;22678;52.052;4.242;2023-07-29T09:56:24;100714.72;;;21.34;74.95
36692;BME280;22678;52.052;4.242;2023-07-29T09:58:50;100729.84;;;21.35;74.88
36692;BME280;22678;52.052;4.242;2023-07-29T10:01:16;100733.19;;;21.23;74.94
36692;BME280;22678;52.052;4.242;2023-07-29T10:03:42;100740.78;;;21.14;75.41
36692;BME280;22678;52.052;4.242;2023-07-29T10:06:07;100742.97;;;21.06;76.12
36692;BME280;22678;52.052;4.242;2023-07-29T10:08:33;100742.28;;;21.03;77.03
36692;BME280;22678;52.052;4.242;2023-07-29T10:11:05;100740.63;;;21.00;77.29
36692;BME280;22678;52.052;4.242;2023-07-29T10:15:56;100754.53;;;21.07;78.59
36692;BME280;22678;52.052;4.242;2023-07-29T10:18:22;100750.66;;;21.12;79.44
36692;BME280;22678;52.052;4.242;2023-07-29T10:20:50;100746.53;;;21.23;79.38
36692;BME280;22678;52.052;4.242;2023-07-29T10:23:17;100744.03;;;21.20;79.68
36692;BME280;22678;52.052;4.242;2023-07-29T10:25:47;100751.84;;;21.40;79.79
36692;BME280;22678;52.052;4.242;2023-07-29T10:28:15;100751.50;;;21.46;79.47
36692;BME280;22678;52.052;4.242;2023-07-29T10:30:41;100756.94;;;21.45;79.20
36692;BME280;22678;52.052;4.242;2023-07-29T10:33:06;100743.72;;;21.42;78.68
36692;BME280;22678;52.052;4.242;2023-07-29T10:35:33;100735.28;;;21.33;78.32
36692;BME280;22678;52.052;4.242;2023-07-29T10:37:59;100728.63;;;21.25;78.17
36692;BME280;22678;52.052;4.242;2023-07-29T10:40:24;100754.09;;;21.32;78.19
36692;BME280;22678;52.052;4.242;2023-07-29T10:43:12;100741.66;;;21.31;78.45
36692;BME280;22678;52.052;4.242;2023-07-29T10:45:39;100739.91;;;21.30;78.62
36692;BME280;22678;52.052;4.242;2023-07-29T10:48:06;100736.66;;;21.25;78.83
36692;BME280;22678;52.052;4.242;2023-07-29T10:50:33;100728.94;;;21.18;78.59
36692;BME280;22678;52.052;4.242;2023-07-29T10:52:59;100728.59;;;21.09;79.10
36692;BME280;22678;52.052;4.242;2023-07-29T10:55:31;100733.84;;;21.10;79.33
36692;BME280;22678;52.052;4.242;2023-07-29T10:58:16;100732.84;;;21.13;79.21
36692;BME280;22678;52.052;4.242;2023-07-29T11:00:44;100736.03;;;21.20;79.00
36692;BME280;22678;52.052;4.242;2023-07-29T11:03:11;100735.25;;;21.17;78.21
36692;BME280;22678;52.052;4.242;2023-07-29T11:05:53;100742.09;;;21.23;78.95
36692;BME280;22678;52.052;4.242;2023-07-29T11:08:29;100725.06;;;21.24;78.77
36692;BME280;22678;52.052;4.242;2023-07-29T11:11:07;100729.91;;;21.17;78.98
36692;BME280;22678;52.052;4.242;2023-07-29T11:13:35;100733.59;;;21.15;79.12
36692;BME280;22678;52.052;4.242;2023-07-29T11:16:01;100729.44;;;21.09;79.20
36692;BME280;22678;52.052;4.242;2023-07-29T11:18:36;100724.00;;;21.11;79.16
36692;BME280;22678;52.052;4.242;2023-07-29T11:21:03;100731.19;;;21.10;79.20
36692;BME280;22678;52.052;4.242;2023-07-29T11:23:33;100738.69;;;21.20;79.36
36692;BME280;22678;52.052;4.242;2023-07-29T11:26:00;100733.00;;;21.26;78.49
36692;BME280;22678;52.052;4.242;2023-07-29T11:28:27;100733.25;;;21.21;77.07
36692;BME280;22678;52.052;4.242;2023-07-29T11:30:54;100742.75;;;21.27;76.05
36692;BME280;22678;52.052;4.242;2023-07-29T11:33:21;100728.88;;;21.36;76.24
36692;BME280;22678;52.052;4.242;2023-07-29T11:35:49;100751.13;;;21.54;76.00
36692;BME280;22678;52.052;4.242;2023-07-29T11:38:18;100758.81;;;21.76;75.21
36692;BME280;22678;52.052;4.242;2023-07-29T11:40:54;100747.94;;;21.79;74.03
36692;BME280;22678;52.052;4.242;2023-07-29T11:43:20;100754.84;;;21.83;72.77
36692;BME280;22678;52.052;4.242;2023-07-29T11:45:45;100746.81;;;21.83;72.55
36692;BME280;22678;52.052;4.242;2023-07-29T11:48:10;100747.75;;;21.82;72.14
36692;BME280;22678;52.052;4.242;2023-07-29T11:50:36;100752.00;;;21.86;72.44
36692;BME280;22678;52.052;4.242;2023-07-29T11:53:01;100751.19;;;21.84;71.95
36692;BME280;22678;52.052;4.242;2023-07-29T11:55:27;100758.09;;;21.88;72.01
36692;BME280;22678;52.052;4.242;2023-07-29T11:57:52;100754.78;;;21.99;72.16
36692;BME280;22678;52.052;4.242;2023-07-29T12:00:18;100758.19;;;22.03;71.25
36692;BME280;22678;52.052;4.242;2023-07-29T12:02:44;100754.97;;;21.96;70.28
36692;BME280;22678;52.052;4.242;2023-07-29T12:05:11;100748.50;;;21.84;69.85
36692;BME280;22678;52.052;4.242;2023-07-29T12:07:42;100737.91;;;21.83;70.40
36692;BME280;22678;52.052;4.242;2023-07-29T12:10:08;100734.09;;;22.03;70.54
36692;BME280;22678;52.052;4.242;2023-07-29T12:12:44;100741.47;;;22.14;70.21
36692;BME280;22678;52.052;4.242;2023-07-29T12:15:10;100735.94;;;22.17;70.17
36692;BME280;22678;52.052;4.242;2023-07-29T12:17:44;100733.16;;;22.18;70.24
36692;BME280;22678;52.052;4.242;2023-07-29T12:20:10;100732.22;;;22.19;69.88
36692;BME280;22678;52.052;4.242;2023-07-29T12:22:35;100742.84;;;22.21;69.67
36692;BME280;22678;52.052;4.242;2023-07-29T12:25:02;100756.34;;;22.19;68.55
36692;BME280;22678;52.052;4.242;2023-07-29T12:27:30;100748.66;;;22.13;68.72
36692;BME280;22678;52.052;4.242;2023-07-29T12:29:55;100746.84;;;22.14;68.53
36692;BME280;22678;52.052;4.242;2023-07-29T12:32:25;100737.81;;;22.31;69.20
36692;BME280;22678;52.052;4.242;2023-07-29T12:34:53;100723.94;;;22.54;68.83
36692;BME280;22678;52.052;4.242;2023-07-29T12:37:18;100732.69;;;22.87;67.14
36692;BME280;22678;52.052;4.242;2023-07-29T12:39:44;100725.31;;;22.90;66.85
36692;BME280;22678;52.052;4.242;2023-07-29T12:42:09;100729.94;;;23.03;66.61
36692;BME280;22678;52.052;4.242;2023-07-29T12:44:38;100727.44;;;23.14;66.70
36692;BME280;22678;52.052;4.242;2023-07-29T12:47:05;100732.06;;;23.12;66.47
36692;BME280;22678;52.052;4.242;2023-07-29T12:49:31;100737.09;;;23.02;64.26